Kyokusho Maru — JL6605 — position and weather

sailwx.info

Track history (hours):
 
Tides and Currents Weather Stations Pressure Air Temp Water Temp Dewpoint Dewpoint Depression Visibility Wind Speed Wind Dir Waves Ship Positions

Kyokusho Maru

Last reported at 2016-Aug-23 08:31 UTC. Time now 2016-Aug-25 04:32 UTC.
Position N 34°37' E 134°56'.

Length 77 m; draft 5.4 m.

Type: Tanker. MMSI: 431501667.

Date/timePositionNaut miles runAvg speedWind from/ knotsBaromVisibWave heightAir tempDewpointWater temp
2016-Aug-23 08:31N 34°37' E 134°56'6 6.6
2016-Aug-23 07:33N 34°36' E 135°04'9 9.1
2016-Aug-23 06:33N 34°27' E 135°03'20 3.1
2016-Aug-23 00:04N 34°07' E 135°08'3 5.0
2016-Aug-22 23:33N 34°09' E 135°08'0 0.1
2016-Aug-22 22:32N 34°09' E 135°08'0 0.0
2016-Aug-22 21:32N 34°09' E 135°08'0 0.0
2016-Aug-22 20:32N 34°09' E 135°08'0 0.0
2016-Aug-22 19:32N 34°09' E 135°08'0 0.0
2016-Aug-22 18:08N 34°09' E 135°08'0 0.0
2016-Aug-22 17:29N 34°09' E 135°08'0 0.0
2016-Aug-22 16:34N 34°09' E 135°08'11 9.0
2016-Aug-22 15:23N 34°17' E 134°59'8 9.8
2016-Aug-22 14:33N 34°25' E 135°00'10 9.8
2016-Aug-22 13:33N 34°34' E 135°02'  
Track history (hours):
 
Tides and Currents Weather Stations Pressure Air Temp Water Temp Dewpoint Dewpoint Depression Visibility Wind Speed Wind Dir Waves Ship Positions

Kyokusho Maru

Last reported at 2016-Aug-23 08:31 UTC. Time now 2016-Aug-25 04:32 UTC.
Position N 34°37' E 134°56'.

Length 77 m; draft 5.4 m.

Type: Tanker. MMSI: 431501667.

Date/timePositionNaut miles runAvg speedWind from/ knotsBaromVisibWave heightAir tempDewpointWater temp
2016-Aug-23 08:31N 34°37' E 134°56'6 6.6
2016-Aug-23 07:33N 34°36' E 135°04'9 9.1
2016-Aug-23 06:33N 34°27' E 135°03'20 3.1
2016-Aug-23 00:04N 34°07' E 135°08'3 5.0
2016-Aug-22 23:33N 34°09' E 135°08'0 0.1
2016-Aug-22 22:32N 34°09' E 135°08'0 0.0
2016-Aug-22 21:32N 34°09' E 135°08'0 0.0
2016-Aug-22 20:32N 34°09' E 135°08'0 0.0
2016-Aug-22 19:32N 34°09' E 135°08'0 0.0
2016-Aug-22 18:08N 34°09' E 135°08'0 0.0
2016-Aug-22 17:29N 34°09' E 135°08'0 0.0
2016-Aug-22 16:34N 34°09' E 135°08'11 9.0
2016-Aug-22 15:23N 34°17' E 134°59'8 9.8
2016-Aug-22 14:33N 34°25' E 135°00'10 9.8
2016-Aug-22 13:33N 34°34' E 135°02'  

Dump ship's entire track history